createdAt,value
2019-06-26T00:01:52.064Z,7.00
2019-06-26T00:04:20.735Z,7.17
2019-06-26T00:06:49.456Z,6.92
2019-06-26T00:09:17.858Z,6.35
2019-06-26T00:11:46.254Z,6.83
2019-06-26T00:14:14.664Z,7.25
2019-06-26T00:16:43.460Z,6.90
2019-06-26T00:19:12.151Z,6.75
2019-06-26T00:21:40.536Z,7.40
2019-06-26T00:24:10.762Z,7.15
2019-06-26T00:26:39.143Z,6.87
2019-06-26T00:29:07.558Z,6.95
2019-06-26T00:31:35.950Z,6.72
2019-06-26T00:34:04.539Z,7.60
2019-06-26T00:36:32.925Z,7.83
2019-06-26T00:39:01.356Z,7.50
2019-06-26T00:41:29.757Z,7.37
2019-06-26T00:43:58.512Z,7.53
2019-06-26T00:46:26.915Z,6.62
2019-06-26T00:48:55.670Z,6.70
2019-06-26T00:51:24.460Z,7.20
2019-06-26T00:53:53.147Z,7.22
2019-06-26T00:56:21.543Z,6.58
2019-06-26T00:58:49.958Z,6.83
2019-06-26T01:01:18.362Z,7.67
2019-06-26T01:03:48.646Z,6.55
2019-06-26T01:06:34.904Z,6.42
2019-06-26T01:09:03.930Z,6.70
2019-06-26T01:11:32.309Z,6.62
2019-06-26T01:14:00.728Z,6.80
2019-06-26T01:16:29.484Z,6.28
2019-06-26T01:18:58.238Z,6.35
2019-06-26T01:21:26.737Z,6.62
2019-06-26T01:23:55.151Z,6.20
2019-06-26T01:26:23.550Z,6.12
2019-06-26T01:28:51.954Z,6.37
2019-06-26T01:31:20.447Z,6.45
2019-06-26T01:33:48.891Z,5.47
2019-06-26T01:36:17.608Z,6.65
2019-06-26T01:38:46.057Z,6.58
2019-06-26T01:41:14.799Z,6.72
2019-06-26T01:43:43.294Z,6.22
2019-06-26T01:46:11.945Z,5.92
2019-06-26T01:48:40.351Z,5.92
2019-06-26T01:51:08.749Z,6.35
2019-06-26T01:53:37.189Z,6.90
2019-06-26T01:56:05.883Z,6.75
2019-06-26T01:58:34.566Z,7.87
2019-06-26T02:01:03.010Z,7.37
2019-06-26T02:03:31.727Z,7.33
2019-06-26T02:06:00.418Z,7.37
2019-06-26T02:08:28.914Z,7.58
2019-06-26T02:10:57.343Z,7.20
2019-06-26T02:13:26.089Z,7.40
2019-06-26T02:15:54.499Z,6.58
2019-06-26T02:18:42.401Z,6.92
2019-06-26T02:21:10.824Z,6.83
2019-06-26T02:23:39.326Z,6.80
2019-06-26T02:26:07.732Z,6.30
2019-06-26T02:28:36.122Z,6.58
2019-06-26T02:31:04.519Z,6.78
2019-06-26T02:33:32.941Z,6.83
2019-06-26T02:36:01.436Z,6.67
2019-06-26T02:38:29.889Z,6.50
2019-06-26T02:40:58.615Z,7.20
2019-06-26T02:43:27.345Z,6.42
2019-06-26T02:45:55.760Z,6.60
2019-06-26T02:48:24.150Z,7.15
2019-06-26T02:50:52.630Z,7.70
2019-06-26T02:53:21.037Z,6.47
2019-06-26T02:55:49.433Z,6.15
2019-06-26T02:58:17.842Z,6.58
2019-06-26T03:00:46.263Z,6.25
2019-06-26T03:03:15.073Z,6.00
2019-06-26T03:05:43.750Z,6.05
2019-06-26T03:08:12.179Z,5.65
2019-06-26T03:10:40.934Z,6.12
2019-06-26T03:13:09.402Z,7.40
2019-06-26T03:15:37.818Z,6.37
2019-06-26T03:18:06.317Z,6.55
2019-06-26T03:20:38.123Z,7.22
2019-06-26T03:23:06.516Z,6.22
2019-06-26T03:25:34.949Z,6.58
2019-06-26T03:28:03.429Z,6.25
2019-06-26T03:30:31.859Z,5.95
2019-06-26T03:33:01.344Z,6.60
2019-06-26T03:35:29.747Z,6.90
2019-06-26T03:37:58.144Z,6.75
2019-06-26T03:40:26.552Z,6.17
2019-06-26T03:42:54.955Z,6.62
2019-06-26T03:45:26.086Z,6.92
2019-06-26T03:47:54.283Z,6.10
2019-06-26T03:50:22.968Z,5.97
2019-06-26T03:52:51.720Z,6.53
2019-06-26T03:55:20.201Z,6.25
2019-06-26T03:57:48.925Z,6.33
2019-06-26T04:00:38.087Z,6.00
2019-06-26T04:03:06.795Z,6.70
2019-06-26T04:05:35.686Z,6.53
2019-06-26T04:08:04.658Z,6.17
2019-06-26T04:10:33.513Z,6.28
2019-06-26T04:13:02.019Z,6.25
2019-06-26T04:15:41.296Z,5.90
2019-06-26T04:18:00.954Z,6.30
2019-06-26T04:20:29.418Z,6.37
2019-06-26T04:22:58.223Z,6.50
2019-06-26T04:25:27.154Z,5.90
2019-06-26T04:27:55.904Z,5.95
2019-06-26T04:30:25.140Z,5.50
2019-06-26T04:32:53.912Z,5.70
2019-06-26T04:35:22.699Z,5.97
2019-06-26T04:37:51.146Z,5.83
2019-06-26T04:40:20.547Z,6.28
2019-06-26T04:42:49.089Z,5.80
2019-06-26T04:45:18.412Z,6.15
2019-06-26T04:47:47.012Z,6.40
2019-06-26T04:50:16.158Z,6.62
2019-06-26T04:52:44.851Z,7.08
2019-06-26T04:55:13.858Z,6.22
2019-06-26T04:57:42.598Z,6.22
2019-06-26T05:00:13.331Z,5.95
2019-06-26T05:02:42.130Z,7.20
2019-06-26T05:05:11.210Z,7.80
2019-06-26T05:07:39.703Z,7.20
2019-06-26T05:10:10.308Z,7.20
2019-06-26T05:12:39.015Z,6.72
2019-06-26T05:15:08.946Z,6.95
2019-06-26T05:17:37.423Z,7.62
2019-06-26T05:20:07.958Z,6.58
2019-06-26T05:22:36.723Z,6.70
2019-06-26T05:25:08.923Z,6.55
2019-06-26T05:27:37.592Z,6.80
2019-06-26T05:30:08.115Z,6.53
2019-06-26T05:32:37.315Z,6.60
2019-06-26T05:35:07.419Z,6.87
2019-06-26T05:37:35.826Z,6.42
2019-06-26T05:40:07.272Z,6.55
2019-06-26T05:42:35.682Z,6.40
2019-06-26T05:45:05.396Z,6.20
2019-06-26T05:47:34.182Z,6.28
2019-06-26T05:50:02.832Z,6.10
2019-06-26T05:52:31.249Z,5.67
2019-06-26T05:54:59.896Z,5.90
2019-06-26T05:57:28.305Z,6.35
2019-06-26T05:59:56.726Z,5.50
2019-06-26T06:02:25.131Z,5.55
2019-06-26T06:04:54.588Z,5.75
2019-06-26T06:07:23.131Z,5.30
2019-06-26T06:09:51.705Z,6.47
2019-06-26T06:12:20.114Z,5.33
2019-06-26T06:14:48.528Z,6.30
2019-06-26T06:17:17.256Z,5.55
2019-06-26T06:19:45.887Z,6.30
2019-06-26T06:22:14.750Z,6.30
2019-06-26T06:24:43.147Z,6.37
2019-06-26T06:27:11.579Z,5.92
2019-06-26T06:29:40.224Z,6.22
2019-06-26T06:32:08.731Z,5.45
2019-06-26T06:34:37.200Z,4.80
2019-06-26T06:37:05.599Z,5.37
2019-06-26T06:39:34.009Z,4.92
2019-06-26T06:42:02.684Z,5.60
2019-06-26T06:44:31.377Z,5.70
2019-06-26T06:47:04.242Z,5.92
2019-06-26T06:49:30.194Z,5.33
2019-06-26T06:51:58.591Z,5.20
2019-06-26T06:54:26.995Z,6.08
2019-06-26T06:56:55.395Z,5.60
2019-06-26T06:59:23.791Z,5.17
2019-06-26T07:01:52.189Z,5.55
2019-06-26T07:04:20.643Z,5.40
2019-06-26T07:06:49.032Z,4.65
2019-06-26T07:09:17.437Z,5.03
2019-06-26T07:11:46.102Z,5.42
2019-06-26T07:14:14.501Z,4.92
2019-06-26T07:16:42.914Z,4.87
2019-06-26T07:19:11.305Z,5.67
2019-06-26T07:21:39.723Z,5.50
2019-06-26T07:24:08.423Z,5.03
2019-06-26T07:26:36.822Z,5.50
2019-06-26T07:29:05.223Z,5.67
2019-06-26T07:31:33.708Z,5.25
2019-06-26T07:34:02.120Z,5.30
2019-06-26T07:36:30.500Z,4.67
2019-06-26T07:38:58.929Z,5.28
2019-06-26T07:41:27.592Z,5.45
2019-06-26T07:43:56.009Z,6.12
2019-06-26T07:46:24.383Z,5.70
2019-06-26T07:48:52.782Z,5.28
2019-06-26T07:51:21.502Z,5.40
2019-06-26T07:53:49.913Z,5.78
2019-06-26T07:56:18.575Z,5.83
2019-06-26T07:58:47.746Z,5.72
2019-06-26T08:01:16.462Z,5.33
2019-06-26T08:03:44.847Z,5.95
2019-06-26T08:06:13.527Z,5.37
2019-06-26T08:08:41.918Z,4.90
2019-06-26T08:11:10.327Z,6.15
2019-06-26T08:13:38.965Z,5.80
2019-06-26T08:16:07.375Z,5.03
2019-06-26T08:18:35.767Z,5.25
2019-06-26T08:21:12.100Z,4.83
2019-06-26T08:23:34.639Z,5.03
2019-06-26T08:26:03.102Z,5.45
2019-06-26T08:28:31.496Z,5.17
2019-06-26T08:31:00.058Z,4.65
2019-06-26T08:33:28.468Z,5.50
2019-06-26T08:35:56.878Z,5.15
2019-06-26T08:38:25.550Z,5.55
2019-06-26T08:40:53.954Z,5.30
2019-06-26T08:43:22.695Z,5.35
2019-06-26T08:45:51.390Z,5.33
2019-06-26T08:48:38.355Z,5.03
2019-06-26T08:50:50.708Z,5.10
2019-06-26T08:53:19.385Z,5.35
2019-06-26T08:55:47.778Z,5.47
2019-06-26T08:58:16.202Z,5.10
2019-06-26T09:00:45.145Z,5.85
2019-06-26T09:03:13.869Z,5.58
2019-06-26T09:05:47.881Z,5.75
2019-06-26T09:08:12.704Z,5.55
2019-06-26T09:10:44.703Z,6.10
2019-06-26T09:13:11.280Z,5.40
2019-06-26T09:15:40.062Z,5.70
2019-06-26T09:18:08.710Z,5.40
2019-06-26T09:20:39.817Z,5.33
2019-06-26T09:23:09.161Z,5.67
2019-06-26T09:25:37.930Z,6.10
2019-06-26T09:28:06.574Z,5.50
2019-06-26T09:30:34.970Z,5.05
2019-06-26T09:33:03.539Z,4.80
2019-06-26T09:35:31.927Z,5.47
2019-06-26T09:38:00.401Z,5.00
2019-06-26T09:40:31.731Z,5.53
2019-06-26T09:42:58.919Z,4.83
2019-06-26T09:45:27.767Z,5.37
2019-06-26T09:47:56.185Z,5.33
2019-06-26T09:50:24.577Z,5.28
2019-06-26T09:52:52.984Z,5.35
2019-06-26T09:55:21.712Z,6.00
2019-06-26T09:57:50.103Z,4.97
2019-06-26T10:00:21.440Z,5.15
2019-06-26T10:02:50.793Z,5.03
2019-06-26T10:05:19.535Z,5.00
2019-06-26T10:07:47.933Z,5.65
2019-06-26T10:10:16.670Z,5.47
2019-06-26T10:12:45.126Z,4.90
2019-06-26T10:15:13.994Z,4.42
2019-06-26T10:17:42.354Z,4.58
2019-06-26T10:20:11.210Z,4.55
2019-06-26T10:22:40.008Z,5.12
2019-06-26T10:25:11.448Z,4.78
2019-06-26T10:27:39.496Z,4.30
2019-06-26T10:30:08.461Z,4.37
2019-06-26T10:32:37.237Z,4.47
2019-06-26T10:35:07.239Z,4.55
2019-06-26T10:37:35.913Z,4.58
2019-06-26T10:40:04.955Z,4.90
2019-06-26T10:42:33.358Z,4.30
2019-06-26T10:45:02.097Z,4.70
2019-06-26T10:47:30.471Z,4.25
2019-06-26T10:49:59.244Z,4.50
2019-06-26T10:52:27.631Z,4.72
2019-06-26T10:54:56.027Z,4.40
2019-06-26T10:57:24.673Z,4.40
2019-06-26T10:59:55.664Z,4.35
2019-06-26T11:02:23.482Z,4.30
2019-06-26T11:04:52.171Z,4.55
2019-06-26T11:07:20.566Z,4.15
2019-06-26T11:09:49.247Z,4.92
2019-06-26T11:12:17.637Z,4.78
2019-06-26T11:14:46.043Z,4.42
2019-06-26T11:17:14.433Z,4.20
2019-06-26T11:19:44.584Z,4.37
2019-06-26T11:22:13.140Z,4.67
2019-06-26T11:24:41.885Z,4.22
2019-06-26T11:27:10.267Z,4.47
2019-06-26T11:29:38.929Z,4.42
2019-06-26T11:32:09.615Z,5.05
2019-06-26T11:34:37.460Z,4.37
2019-06-26T11:37:05.867Z,5.00
2019-06-26T11:39:34.256Z,4.53
2019-06-26T11:42:02.674Z,5.05
2019-06-26T11:44:31.143Z,4.17
2019-06-26T11:46:59.544Z,4.85
2019-06-26T11:49:27.952Z,4.87
2019-06-26T11:51:56.339Z,5.05
2019-06-26T11:54:24.730Z,4.58
2019-06-26T11:56:53.393Z,4.78
2019-06-26T11:59:21.781Z,4.72
2019-06-26T12:01:50.547Z,4.90
2019-06-26T12:04:18.943Z,5.03
2019-06-26T12:06:47.599Z,4.47
2019-06-26T12:09:15.994Z,4.05
2019-06-26T12:11:44.406Z,4.78
2019-06-26T12:14:12.802Z,4.50
2019-06-26T12:16:41.204Z,4.28
2019-06-26T12:19:09.931Z,4.42
2019-06-26T12:21:38.590Z,4.33
2019-06-26T12:24:06.985Z,4.95
2019-06-26T12:26:35.663Z,4.62
2019-06-26T12:29:04.160Z,3.85
2019-06-26T12:31:32.640Z,3.90
2019-06-26T12:34:01.303Z,4.05
2019-06-26T12:36:30.007Z,4.53
2019-06-26T12:38:58.388Z,4.20
2019-06-26T12:41:27.161Z,4.42
2019-06-26T12:43:55.553Z,4.25
2019-06-26T12:46:24.222Z,4.40
2019-06-26T12:48:52.697Z,3.47
2019-06-26T12:51:21.173Z,4.17
2019-06-26T12:53:49.874Z,4.00
2019-06-26T12:56:18.280Z,3.85
2019-06-26T12:58:46.728Z,3.87
2019-06-26T13:01:15.431Z,3.60
2019-06-26T13:03:43.828Z,3.55
2019-06-26T13:06:12.248Z,4.10
2019-06-26T13:08:40.632Z,3.77
2019-06-26T13:11:09.033Z,4.03
2019-06-26T13:13:37.431Z,4.25
2019-06-26T13:16:05.836Z,3.70
2019-06-26T13:18:34.696Z,3.50
2019-06-26T13:21:05.252Z,3.72
2019-06-26T13:23:33.603Z,4.22
2019-06-26T13:26:01.998Z,3.60
2019-06-26T13:28:30.397Z,4.22
2019-06-26T13:30:58.891Z,4.08
2019-06-26T13:33:27.330Z,3.90
2019-06-26T13:35:55.758Z,3.90
2019-06-26T13:38:27.078Z,4.35
2019-06-26T13:40:54.640Z,3.80
2019-06-26T13:43:23.035Z,4.25
2019-06-26T13:45:51.797Z,4.33
2019-06-26T13:48:20.316Z,4.75
2019-06-26T13:50:48.707Z,4.40
2019-06-26T13:53:17.122Z,4.80
2019-06-26T13:55:45.517Z,4.87
2019-06-26T13:58:13.918Z,4.30
2019-06-26T14:00:42.317Z,3.90
2019-06-26T14:03:10.822Z,4.97
2019-06-26T14:05:39.551Z,4.53
2019-06-26T14:08:07.989Z,4.33
2019-06-26T14:10:36.396Z,4.20
2019-06-26T14:13:04.900Z,4.20
2019-06-26T14:15:33.413Z,4.30
2019-06-26T14:18:01.846Z,4.17
2019-06-26T14:20:30.262Z,4.58
2019-06-26T14:22:58.704Z,3.80
2019-06-26T14:25:27.132Z,4.25
2019-06-26T14:27:55.870Z,4.20
2019-06-26T14:30:27.833Z,4.05
2019-06-26T14:32:54.870Z,3.83
2019-06-26T14:35:23.563Z,4.62
2019-06-26T14:37:52.016Z,4.50
2019-06-26T14:40:21.962Z,3.90
2019-06-26T14:42:50.393Z,4.05
2019-06-26T14:45:19.263Z,3.90
2019-06-26T14:47:48.042Z,4.67
2019-06-26T14:50:17.598Z,3.90
2019-06-26T14:52:46.179Z,4.72
2019-06-26T14:55:14.966Z,4.03
2019-06-26T14:57:43.349Z,4.40
2019-06-26T15:00:12.720Z,4.42
2019-06-26T15:02:41.161Z,4.12
2019-06-26T15:05:10.535Z,4.10
2019-06-26T15:07:39.028Z,4.55
2019-06-26T15:10:08.883Z,4.37
2019-06-26T15:12:37.860Z,4.15
2019-06-26T15:15:08.591Z,4.50
2019-06-26T15:17:37.025Z,5.25
2019-06-26T15:20:08.405Z,4.35
2019-06-26T15:22:36.799Z,4.60
2019-06-26T15:25:07.259Z,4.62
2019-06-26T15:27:35.740Z,4.78
2019-06-26T15:30:09.123Z,4.83
2019-06-26T15:32:37.549Z,4.42
2019-06-26T15:35:07.417Z,4.53
2019-06-26T15:37:36.145Z,4.25
2019-06-26T15:40:06.279Z,4.20
2019-06-26T15:42:34.996Z,4.75
2019-06-26T15:45:03.614Z,4.72
2019-06-26T15:47:32.276Z,4.80
2019-06-26T15:50:00.693Z,4.80
2019-06-26T15:52:31.520Z,4.40
2019-06-26T15:54:59.333Z,4.45
2019-06-26T15:57:27.732Z,5.37
2019-06-26T15:59:56.481Z,4.87
2019-06-26T16:02:24.918Z,4.58
2019-06-26T16:04:53.595Z,4.75
2019-06-26T16:07:21.998Z,4.75
2019-06-26T16:09:50.400Z,4.60
2019-06-26T16:12:18.795Z,4.62
2019-06-26T16:14:47.623Z,4.70
2019-06-26T16:17:17.644Z,4.62
2019-06-26T16:19:46.329Z,5.25
2019-06-26T16:22:27.784Z,4.83
2019-06-26T16:24:45.180Z,5.00
2019-06-26T16:27:13.580Z,4.97
2019-06-26T16:29:42.639Z,5.00
2019-06-26T16:32:11.215Z,4.22
2019-06-26T16:34:42.079Z,4.78
2019-06-26T16:37:09.763Z,5.33
2019-06-26T16:39:38.177Z,4.78
2019-06-26T16:42:06.606Z,5.15
2019-06-26T16:44:35.345Z,4.80
2019-06-26T16:47:03.747Z,4.58
2019-06-26T16:49:32.144Z,4.85
2019-06-26T16:52:00.910Z,5.47
2019-06-26T16:54:29.571Z,5.25
2019-06-26T16:56:57.977Z,6.00
2019-06-26T16:59:26.380Z,5.10
2019-06-26T17:01:55.140Z,5.05
2019-06-26T17:04:23.562Z,19.48
2019-06-26T17:06:52.010Z,8.45
2019-06-26T17:09:20.402Z,6.28
2019-06-26T17:11:49.166Z,5.05
2019-06-26T17:14:17.863Z,5.50
2019-06-26T17:16:46.255Z,5.85
2019-06-26T17:19:14.650Z,5.03
2019-06-26T17:21:43.074Z,4.83
2019-06-26T17:24:11.480Z,4.70
2019-06-26T17:26:39.893Z,4.75
2019-06-26T17:29:08.639Z,4.75
2019-06-26T17:31:37.325Z,4.55
2019-06-26T17:34:05.726Z,5.00
2019-06-26T17:36:34.145Z,4.42
2019-06-26T17:39:02.705Z,4.60
2019-06-26T17:41:31.094Z,4.58
2019-06-26T17:43:59.514Z,5.00
2019-06-26T17:46:27.964Z,5.67
2019-06-26T17:48:56.702Z,5.87
2019-06-26T17:51:25.225Z,5.62
2019-06-26T17:53:53.611Z,4.97
2019-06-26T17:56:22.345Z,5.60
2019-06-26T17:58:50.753Z,4.90
2019-06-26T18:01:19.535Z,5.92
2019-06-26T18:03:47.935Z,6.05
2019-06-26T18:06:16.336Z,5.67
2019-06-26T18:08:44.731Z,5.75
2019-06-26T18:11:13.159Z,6.55
2019-06-26T18:13:41.548Z,5.50
2019-06-26T18:16:09.952Z,5.70
2019-06-26T18:18:38.682Z,6.03
2019-06-26T18:21:07.488Z,6.50
2019-06-26T18:23:38.439Z,6.00
2019-06-26T18:26:12.920Z,6.33
2019-06-26T18:28:36.138Z,6.42
2019-06-26T18:31:04.618Z,5.58
2019-06-26T18:33:33.012Z,6.53
2019-06-26T18:36:01.402Z,5.75
2019-06-26T18:38:29.824Z,6.25
2019-06-26T18:40:58.269Z,5.87
2019-06-26T18:43:26.726Z,6.35
2019-06-26T18:45:55.123Z,5.92
2019-06-26T18:48:25.033Z,5.65
2019-06-26T18:50:53.581Z,5.75
2019-06-26T18:53:22.023Z,6.03
2019-06-26T18:55:50.835Z,5.78
2019-06-26T18:58:19.365Z,6.00
2019-06-26T19:00:47.985Z,5.33
2019-06-26T19:03:16.464Z,6.62
2019-06-26T19:05:45.065Z,6.20
2019-06-26T19:08:13.483Z,6.30
2019-06-26T19:10:42.264Z,7.10
2019-06-26T19:13:11.037Z,5.78
2019-06-26T19:15:39.862Z,6.15
2019-06-26T19:18:08.595Z,6.25
2019-06-26T19:20:36.998Z,6.60
2019-06-26T19:23:05.660Z,6.60
2019-06-26T19:25:34.374Z,7.25
2019-06-26T19:28:02.863Z,6.83
2019-06-26T19:30:31.530Z,7.00
2019-06-26T19:33:00.205Z,6.45
2019-06-26T19:35:28.597Z,6.40
2019-06-26T19:37:57.041Z,7.50
2019-06-26T19:40:25.465Z,6.87
2019-06-26T19:42:53.871Z,7.37
2019-06-26T19:45:22.833Z,7.40
2019-06-26T19:47:51.297Z,7.42
2019-06-26T19:50:23.341Z,8.25
2019-06-26T19:52:50.312Z,7.80
2019-06-26T19:55:18.965Z,7.22
2019-06-26T19:57:47.797Z,7.33
2019-06-26T20:00:16.621Z,6.97
2019-06-26T20:02:45.660Z,7.28
2019-06-26T20:05:14.073Z,7.17
2019-06-26T20:07:42.498Z,6.75
2019-06-26T20:10:12.757Z,7.15
2019-06-26T20:12:41.227Z,7.50
2019-06-26T20:15:09.968Z,7.42
2019-06-26T20:17:38.716Z,7.50
2019-06-26T20:20:07.879Z,6.80
2019-06-26T20:22:36.354Z,6.28
2019-06-26T20:25:07.806Z,6.55
2019-06-26T20:27:36.410Z,6.95
2019-06-26T20:30:09.539Z,7.03
2019-06-26T20:32:36.584Z,7.08
2019-06-26T20:35:06.850Z,7.22
2019-06-26T20:37:35.336Z,6.70
2019-06-26T20:40:06.000Z,6.72
2019-06-26T20:42:34.430Z,7.03
2019-06-26T20:45:03.222Z,7.28
2019-06-26T20:47:31.611Z,7.30
2019-06-26T20:50:00.017Z,7.42
2019-06-26T20:52:28.714Z,7.20
2019-06-26T20:55:02.176Z,7.37
2019-06-26T20:57:27.535Z,7.33
2019-06-26T20:59:56.044Z,7.25
2019-06-26T21:02:24.509Z,7.15
2019-06-26T21:04:52.926Z,7.40
2019-06-26T21:07:21.600Z,7.30
2019-06-26T21:09:50.012Z,7.25
2019-06-26T21:12:18.739Z,6.65
2019-06-26T21:14:47.244Z,7.10
2019-06-26T21:17:16.152Z,7.20
2019-06-26T21:19:44.761Z,7.30
2019-06-26T21:22:13.186Z,7.42
2019-06-26T21:24:41.586Z,6.83
2019-06-26T21:27:10.334Z,7.85
2019-06-26T21:29:38.840Z,7.90
2019-06-26T21:32:07.243Z,8.80
2019-06-26T21:34:35.645Z,8.38
2019-06-26T21:37:04.708Z,7.45
2019-06-26T21:39:33.323Z,7.70
2019-06-26T21:42:01.717Z,7.53
2019-06-26T21:44:30.471Z,7.40
2019-06-26T21:46:58.911Z,7.40
2019-06-26T21:49:27.431Z,7.50
2019-06-26T21:51:56.285Z,6.80
2019-06-26T21:54:25.075Z,6.78
2019-06-26T21:56:53.467Z,7.50
2019-06-26T21:59:22.154Z,6.72
2019-06-26T22:01:50.918Z,7.97
2019-06-26T22:04:19.970Z,7.60
2019-06-26T22:06:48.728Z,8.25
2019-06-26T22:09:17.446Z,8.85
2019-06-26T22:11:46.128Z,7.92
2019-06-26T22:14:15.023Z,7.95
2019-06-26T22:16:43.432Z,7.97
2019-06-26T22:19:12.049Z,8.28
2019-06-26T22:21:40.599Z,9.00
2019-06-26T22:24:09.407Z,8.00
2019-06-26T22:26:37.888Z,8.50
2019-06-26T22:29:06.353Z,8.13
2019-06-26T22:31:34.933Z,7.45
2019-06-26T22:34:03.341Z,7.83
2019-06-26T22:36:32.204Z,8.23
2019-06-26T22:39:00.609Z,8.08
2019-06-26T22:41:29.391Z,8.33
2019-06-26T22:43:57.785Z,8.08
2019-06-26T22:46:26.368Z,8.48
2019-06-26T22:48:54.770Z,7.37
2019-06-26T22:51:23.211Z,7.90
2019-06-26T22:53:51.609Z,8.48
2019-06-26T22:56:20.052Z,8.53
2019-06-26T22:58:48.438Z,8.65
2019-06-26T23:01:16.870Z,7.80
2019-06-26T23:03:45.254Z,8.53
2019-06-26T23:06:13.862Z,8.45
2019-06-26T23:08:42.598Z,8.85
2019-06-26T23:11:11.011Z,9.08
2019-06-26T23:13:39.419Z,8.95
2019-06-26T23:16:08.142Z,8.98
2019-06-26T23:18:36.545Z,8.60
2019-06-26T23:21:05.242Z,8.58
2019-06-26T23:23:33.657Z,8.13
2019-06-26T23:26:02.066Z,9.00
2019-06-26T23:28:30.469Z,8.40
2019-06-26T23:30:58.893Z,8.13
2019-06-26T23:33:27.617Z,8.58
2019-06-26T23:35:56.023Z,8.98
2019-06-26T23:38:24.439Z,9.20
2019-06-26T23:40:52.844Z,8.73
2019-06-26T23:43:21.803Z,8.35
2019-06-26T23:45:50.477Z,8.53
2019-06-26T23:48:18.884Z,8.60
2019-06-26T23:50:47.287Z,9.60
2019-06-26T23:53:15.701Z,8.65
2019-06-26T23:55:44.095Z,8.88
2019-06-26T23:58:12.866Z,8.65
